sensor_id;sensor_type;location;lat;lon;timestamp;pressure;altitude;pressure_sealevel;temperature;humidity
29907;BME280;16776;50.958;10.994;2023-03-22T00:00:06;98170.00;;;8.01;98.25
29907;BME280;16776;50.958;10.994;2023-03-22T00:02:38;98170.84;;;8.01;98.27
29907;BME280;16776;50.958;10.994;2023-03-22T00:05:05;98170.94;;;7.98;98.13
29907;BME280;16776;50.958;10.994;2023-03-22T00:07:32;98177.81;;;7.96;98.05
29907;BME280;16776;50.958;10.994;2023-03-22T00:09:58;98181.34;;;7.92;97.50
29907;BME280;16776;50.958;10.994;2023-03-22T00:12:25;98184.84;;;7.88;98.37
29907;BME280;16776;50.958;10.994;2023-03-22T00:14:52;98179.78;;;7.85;97.71
29907;BME280;16776;50.958;10.994;2023-03-22T00:17:19;98172.19;;;7.80;98.29
29907;BME280;16776;50.958;10.994;2023-03-22T00:19:48;98179.94;;;7.79;97.34
29907;BME280;16776;50.958;10.994;2023-03-22T00:22:15;98168.91;;;7.74;97.87
29907;BME280;16776;50.958;10.994;2023-03-22T00:24:41;98169.06;;;7.68;97.89
29907;BME280;16776;50.958;10.994;2023-03-22T00:27:08;98175.16;;;7.64;97.47
29907;BME280;16776;50.958;10.994;2023-03-22T00:29:34;98170.03;;;7.62;98.09
29907;BME280;16776;50.958;10.994;2023-03-22T00:32:04;98170.03;;;7.62;97.64
29907;BME280;16776;50.958;10.994;2023-03-22T00:34:31;98149.94;;;7.44;98.48
29907;BME280;16776;50.958;10.994;2023-03-22T00:36:59;98163.44;;;7.54;97.94
29907;BME280;16776;50.958;10.994;2023-03-22T00:39:26;98156.66;;;7.50;97.85
29907;BME280;16776;50.958;10.994;2023-03-22T00:41:53;98157.59;;;7.47;98.55
29907;BME280;16776;50.958;10.994;2023-03-22T00:44:19;98158.47;;;7.44;98.38
29907;BME280;16776;50.958;10.994;2023-03-22T00:46:46;98161.06;;;7.43;98.41
29907;BME280;16776;50.958;10.994;2023-03-22T00:49:12;98160.31;;;7.39;98.36
29907;BME280;16776;50.958;10.994;2023-03-22T00:51:39;98157.81;;;7.36;98.32
29907;BME280;16776;50.958;10.994;2023-03-22T00:54:07;98150.94;;;7.38;98.70
29907;BME280;16776;50.958;10.994;2023-03-22T00:56:33;98151.88;;;7.34;98.21
29907;BME280;16776;50.958;10.994;2023-03-22T00:59:02;98151.94;;;7.31;98.99
29907;BME280;16776;50.958;10.994;2023-03-22T01:01:29;98144.34;;;7.27;98.85
29907;BME280;16776;50.958;10.994;2023-03-22T01:03:55;98143.53;;;7.25;98.90
29907;BME280;16776;50.958;10.994;2023-03-22T01:06:22;98148.69;;;7.23;99.05
29907;BME280;16776;50.958;10.994;2023-03-22T01:08:48;98145.38;;;7.18;98.78
29907;BME280;16776;50.958;10.994;2023-03-22T01:11:17;98140.25;;;7.18;99.65
29907;BME280;16776;50.958;10.994;2023-03-22T01:13:43;98136.97;;;7.13;98.73
29907;BME280;16776;50.958;10.994;2023-03-22T01:16:12;98136.13;;;7.13;98.95
29907;BME280;16776;50.958;10.994;2023-03-22T01:18:39;98137.00;;;7.10;98.52
29907;BME280;16776;50.958;10.994;2023-03-22T01:21:06;98139.66;;;7.07;98.99
29907;BME280;16776;50.958;10.994;2023-03-22T01:23:33;98143.16;;;7.03;99.28
29907;BME280;16776;50.958;10.994;2023-03-22T01:25:59;98143.22;;;7.00;99.13
29907;BME280;16776;50.958;10.994;2023-03-22T01:28:28;98139.81;;;6.98;98.66
29907;BME280;16776;50.958;10.994;2023-03-22T01:30:59;98124.72;;;6.86;99.21
29907;BME280;16776;50.958;10.994;2023-03-22T01:33:26;98146.84;;;6.88;99.17
29907;BME280;16776;50.958;10.994;2023-03-22T01:35:53;98142.63;;;6.86;99.50
29907;BME280;16776;50.958;10.994;2023-03-22T01:38:19;98144.41;;;6.82;98.76
29907;BME280;16776;50.958;10.994;2023-03-22T01:40:46;98143.59;;;6.80;99.77
29907;BME280;16776;50.958;10.994;2023-03-22T01:43:14;98141.03;;;6.80;99.26
29907;BME280;16776;50.958;10.994;2023-03-22T01:45:43;98135.06;;;6.80;99.38
29907;BME280;16776;50.958;10.994;2023-03-22T01:48:16;98129.94;;;6.80;99.95
29907;BME280;16776;50.958;10.994;2023-03-22T01:50:49;98128.25;;;6.79;100.00
29907;BME280;16776;50.958;10.994;2023-03-22T01:53:22;98127.41;;;6.78;99.74
29907;BME280;16776;50.958;10.994;2023-03-22T01:55:51;98125.69;;;6.79;100.00
29907;BME280;16776;50.958;10.994;2023-03-22T01:58:19;98122.28;;;6.80;99.51
29907;BME280;16776;50.958;10.994;2023-03-22T02:00:48;98117.97;;;6.83;99.78
29907;BME280;16776;50.958;10.994;2023-03-22T02:03:19;98111.94;;;6.84;99.43
29907;BME280;16776;50.958;10.994;2023-03-22T02:05:47;98115.41;;;6.82;100.00
29907;BME280;16776;50.958;10.994;2023-03-22T02:08:14;98115.41;;;6.83;99.48
29907;BME280;16776;50.958;10.994;2023-03-22T02:10:41;98114.56;;;6.83;100.00
29907;BME280;16776;50.958;10.994;2023-03-22T02:13:21;98105.81;;;6.91;99.60
29907;BME280;16776;50.958;10.994;2023-03-22T02:15:59;98098.19;;;6.90;100.00
29907;BME280;16776;50.958;10.994;2023-03-22T02:18:41;98103.25;;;6.91;99.93
29907;BME280;16776;50.958;10.994;2023-03-22T02:21:41;98096.38;;;6.95;99.28
29907;BME280;16776;50.958;10.994;2023-03-22T02:24:50;98097.22;;;6.95;99.40
29907;BME280;16776;50.958;10.994;2023-03-22T02:27:38;98101.56;;;6.92;99.51
29907;BME280;16776;50.958;10.994;2023-03-22T02:30:23;98099.84;;;6.91;100.00
29907;BME280;16776;50.958;10.994;2023-03-22T02:33:13;98104.16;;;6.90;100.00
29907;BME280;16776;50.958;10.994;2023-03-22T02:39:13;98098.25;;;6.87;100.00
29907;BME280;16776;50.958;10.994;2023-03-22T02:41:53;98093.94;;;6.89;100.00
29907;BME280;16776;50.958;10.994;2023-03-22T02:44:25;98095.69;;;6.87;99.35
29907;BME280;16776;50.958;10.994;2023-03-22T02:46:59;98097.41;;;6.86;99.65
29907;BME280;16776;50.958;10.994;2023-03-22T02:49:32;98094.88;;;6.85;100.00
29907;BME280;16776;50.958;10.994;2023-03-22T02:52:02;98091.47;;;6.84;99.78
29907;BME280;16776;50.958;10.994;2023-03-22T02:54:37;98091.44;;;6.86;100.00
29907;BME280;16776;50.958;10.994;2023-03-22T02:57:09;98093.22;;;6.84;100.00
29907;BME280;16776;50.958;10.994;2023-03-22T02:59:38;98089.81;;;6.82;99.91
29907;BME280;16776;50.958;10.994;2023-03-22T03:02:08;98096.63;;;6.83;99.47
29907;BME280;16776;50.958;10.994;2023-03-22T03:04:39;98089.81;;;6.83;99.74
29907;BME280;16776;50.958;10.994;2023-03-22T03:07:12;98086.34;;;6.84;100.00
29907;BME280;16776;50.958;10.994;2023-03-22T03:09:42;98093.25;;;6.81;100.00
29907;BME280;16776;50.958;10.994;2023-03-22T03:12:14;98079.63;;;6.79;100.00
29907;BME280;16776;50.958;10.994;2023-03-22T03:14:43;98083.97;;;6.77;100.00
29907;BME280;16776;50.958;10.994;2023-03-22T03:17:21;98082.13;;;6.83;100.00
29907;BME280;16776;50.958;10.994;2023-03-22T03:19:56;98083.88;;;6.81;100.00
29907;BME280;16776;50.958;10.994;2023-03-22T03:22:40;98082.16;;;6.80;100.00
29907;BME280;16776;50.958;10.994;2023-03-22T03:25:17;98085.56;;;6.82;100.00
29907;BME280;16776;50.958;10.994;2023-03-22T03:27:51;98084.72;;;6.80;100.00
29907;BME280;16776;50.958;10.994;2023-03-22T03:30:26;98083.03;;;6.81;100.00
29907;BME280;16776;50.958;10.994;2023-03-22T03:32:59;98088.97;;;6.83;100.00
29907;BME280;16776;50.958;10.994;2023-03-22T03:35:31;98089.72;;;6.86;100.00
29907;BME280;16776;50.958;10.994;2023-03-22T03:38:05;98088.84;;;6.89;100.00
29907;BME280;16776;50.958;10.994;2023-03-22T03:40:37;98091.31;;;6.92;100.00
29907;BME280;16776;50.958;10.994;2023-03-22T03:43:07;98094.75;;;6.91;100.00
29907;BME280;16776;50.958;10.994;2023-03-22T03:45:35;98087.97;;;6.90;100.00
29907;BME280;16776;50.958;10.994;2023-03-22T03:48:04;98087.91;;;6.91;100.00
29907;BME280;16776;50.958;10.994;2023-03-22T03:50:31;98082.00;;;6.89;100.00
29907;BME280;16776;50.958;10.994;2023-03-22T03:53:01;98077.72;;;6.90;100.00
29907;BME280;16776;50.958;10.994;2023-03-22T03:55:28;98079.44;;;6.89;100.00
29907;BME280;16776;50.958;10.994;2023-03-22T03:57:57;98076.81;;;6.91;100.00
29907;BME280;16776;50.958;10.994;2023-03-22T04:00:24;98067.63;;;6.84;100.00
29907;BME280;16776;50.958;10.994;2023-03-22T04:02:51;98076.94;;;6.86;100.00
29907;BME280;16776;50.958;10.994;2023-03-22T04:05:17;98075.25;;;6.85;100.00
29907;BME280;16776;50.958;10.994;2023-03-22T04:07:44;98079.56;;;6.83;99.63
29907;BME280;16776;50.958;10.994;2023-03-22T04:10:10;98073.63;;;6.81;100.00
29907;BME280;16776;50.958;10.994;2023-03-22T04:12:37;98073.66;;;6.78;100.00
29907;BME280;16776;50.958;10.994;2023-03-22T04:15:06;98069.41;;;6.79;100.00
29907;BME280;16776;50.958;10.994;2023-03-22T04:17:33;98072.06;;;6.74;100.00
29907;BME280;16776;50.958;10.994;2023-03-22T04:20:01;98071.22;;;6.72;100.00
29907;BME280;16776;50.958;10.994;2023-03-22T04:22:28;98068.69;;;6.71;100.00
29907;BME280;16776;50.958;10.994;2023-03-22T04:24:59;98061.91;;;6.70;99.71
29907;BME280;16776;50.958;10.994;2023-03-22T04:27:26;98074.72;;;6.68;100.00
29907;BME280;16776;50.958;10.994;2023-03-22T04:29:52;98068.78;;;6.66;100.00
29907;BME280;16776;50.958;10.994;2023-03-22T04:32:21;98056.09;;;6.60;100.00
29907;BME280;16776;50.958;10.994;2023-03-22T04:34:51;98069.69;;;6.63;100.00
29907;BME280;16776;50.958;10.994;2023-03-22T04:37:18;98079.94;;;6.63;100.00
29907;BME280;16776;50.958;10.994;2023-03-22T04:39:46;98071.41;;;6.63;100.00
29907;BME280;16776;50.958;10.994;2023-03-22T04:42:13;98069.75;;;6.60;100.00
29907;BME280;16776;50.958;10.994;2023-03-22T04:44:39;98058.66;;;6.60;100.00
29907;BME280;16776;50.958;10.994;2023-03-22T04:47:08;98052.69;;;6.61;100.00
29907;BME280;16776;50.958;10.994;2023-03-22T04:49:36;98041.75;;;6.53;100.00
29907;BME280;16776;50.958;10.994;2023-03-22T04:52:02;98057.91;;;6.56;100.00
29907;BME280;16776;50.958;10.994;2023-03-22T04:54:29;98050.22;;;6.56;100.00
29907;BME280;16776;50.958;10.994;2023-03-22T04:56:56;98051.09;;;6.55;100.00
29907;BME280;16776;50.958;10.994;2023-03-22T04:59:22;98043.44;;;6.54;100.00
29907;BME280;16776;50.958;10.994;2023-03-22T05:01:49;98046.00;;;6.54;100.00
29907;BME280;16776;50.958;10.994;2023-03-22T05:04:18;98040.91;;;6.52;100.00
29907;BME280;16776;50.958;10.994;2023-03-22T05:06:46;98043.44;;;6.54;100.00
29907;BME280;16776;50.958;10.994;2023-03-22T05:09:13;98037.56;;;6.50;100.00
29907;BME280;16776;50.958;10.994;2023-03-22T05:11:40;98036.72;;;6.50;100.00
29907;BME280;16776;50.958;10.994;2023-03-22T05:14:10;98026.47;;;6.50;100.00
29907;BME280;16776;50.958;10.994;2023-03-22T05:16:37;98028.22;;;6.48;100.00
29907;BME280;16776;50.958;10.994;2023-03-22T05:19:05;98028.22;;;6.46;100.00
29907;BME280;16776;50.958;10.994;2023-03-22T05:21:38;98026.56;;;6.45;100.00
29907;BME280;16776;50.958;10.994;2023-03-22T05:24:07;98027.38;;;6.47;100.00
29907;BME280;16776;50.958;10.994;2023-03-22T05:26:34;98029.19;;;6.42;100.00
29907;BME280;16776;50.958;10.994;2023-03-22T05:29:02;98015.75;;;6.33;100.00
29907;BME280;16776;50.958;10.994;2023-03-22T05:31:29;98019.78;;;6.44;100.00
29907;BME280;16776;50.958;10.994;2023-03-22T05:33:59;98016.09;;;6.57;100.00
29907;BME280;16776;50.958;10.994;2023-03-22T05:36:28;98020.72;;;6.82;100.00
29907;BME280;16776;50.958;10.994;2023-03-22T05:38:58;98026.19;;;7.03;100.00
29907;BME280;16776;50.958;10.994;2023-03-22T05:41:26;98029.22;;;7.22;100.00
29907;BME280;16776;50.958;10.994;2023-03-22T05:43:55;98030.72;;;7.31;100.00
29907;BME280;16776;50.958;10.994;2023-03-22T05:46:22;98033.16;;;7.35;100.00
29907;BME280;16776;50.958;10.994;2023-03-22T05:48:49;98033.13;;;7.37;100.00
29907;BME280;16776;50.958;10.994;2023-03-22T05:51:15;98035.66;;;7.38;100.00
29907;BME280;16776;50.958;10.994;2023-03-22T05:53:43;98038.25;;;7.37;100.00
29907;BME280;16776;50.958;10.994;2023-03-22T05:56:10;98033.16;;;7.35;100.00
29907;BME280;16776;50.958;10.994;2023-03-22T05:58:40;98038.22;;;7.38;100.00
29907;BME280;16776;50.958;10.994;2023-03-22T06:01:08;98031.53;;;7.33;100.00
29907;BME280;16776;50.958;10.994;2023-03-22T06:03:35;98031.66;;;7.28;100.00
29907;BME280;16776;50.958;10.994;2023-03-22T06:06:01;98029.97;;;7.26;100.00
29907;BME280;16776;50.958;10.994;2023-03-22T06:08:31;98025.75;;;7.23;100.00
29907;BME280;16776;50.958;10.994;2023-03-22T06:10:57;98036.94;;;7.21;100.00
29907;BME280;16776;50.958;10.994;2023-03-22T06:13:24;98037.81;;;7.20;100.00
29907;BME280;16776;50.958;10.994;2023-03-22T06:15:52;98044.63;;;7.21;100.00
29907;BME280;16776;50.958;10.994;2023-03-22T06:18:19;98041.25;;;7.19;100.00
29907;BME280;16776;50.958;10.994;2023-03-22T06:20:46;98044.63;;;7.19;100.00
29907;BME280;16776;50.958;10.994;2023-03-22T06:23:12;98047.16;;;7.22;100.00
29907;BME280;16776;50.958;10.994;2023-03-22T06:25:39;98051.31;;;7.26;100.00
29907;BME280;16776;50.958;10.994;2023-03-22T06:28:05;98047.78;;;7.30;100.00
29907;BME280;16776;50.958;10.994;2023-03-22T06:30:32;98053.63;;;7.37;100.00
29907;BME280;16776;50.958;10.994;2023-03-22T06:33:00;98048.28;;;7.46;100.00
29907;BME280;16776;50.958;10.994;2023-03-22T06:35:29;98058.41;;;7.52;100.00
29907;BME280;16776;50.958;10.994;2023-03-22T06:37:56;98055.66;;;7.60;100.00
29907;BME280;16776;50.958;10.994;2023-03-22T06:40:26;98045.13;;;7.72;100.00
29907;BME280;16776;50.958;10.994;2023-03-22T06:42:53;98054.28;;;7.80;100.00
29907;BME280;16776;50.958;10.994;2023-03-22T06:45:20;98054.06;;;7.90;100.00
29907;BME280;16776;50.958;10.994;2023-03-22T06:47:46;98052.00;;;8.04;100.00
29907;BME280;16776;50.958;10.994;2023-03-22T06:50:19;98052.44;;;8.19;100.00
29907;BME280;16776;50.958;10.994;2023-03-22T06:52:45;98050.53;;;8.28;100.00
29907;BME280;16776;50.958;10.994;2023-03-22T06:55:12;98051.03;;;8.40;100.00
29907;BME280;16776;50.958;10.994;2023-03-22T06:57:39;98048.09;;;8.54;100.00
29907;BME280;16776;50.958;10.994;2023-03-22T07:00:09;98049.28;;;8.73;100.00
29907;BME280;16776;50.958;10.994;2023-03-22T07:02:37;98048.06;;;8.85;100.00
29907;BME280;16776;50.958;10.994;2023-03-22T07:05:05;98054.34;;;9.04;100.00
29907;BME280;16776;50.958;10.994;2023-03-22T07:07:33;98048.72;;;9.21;100.00
29907;BME280;16776;50.958;10.994;2023-03-22T07:10:00;98059.47;;;9.33;100.00
29907;BME280;16776;50.958;10.994;2023-03-22T07:12:26;98049.72;;;9.44;100.00
29907;BME280;16776;50.958;10.994;2023-03-22T07:14:53;98058.72;;;9.58;100.00
29907;BME280;16776;50.958;10.994;2023-03-22T07:17:19;98054.94;;;9.69;100.00
29907;BME280;16776;50.958;10.994;2023-03-22T07:19:51;98049.41;;;9.80;100.00
29907;BME280;16776;50.958;10.994;2023-03-22T07:22:18;98040.41;;;9.93;100.00
29907;BME280;16776;50.958;10.994;2023-03-22T07:24:47;98051.94;;;10.08;100.00
29907;BME280;16776;50.958;10.994;2023-03-22T07:27:14;98053.22;;;10.19;100.00
29907;BME280;16776;50.958;10.994;2023-03-22T07:29:43;98044.94;;;10.36;100.00
29907;BME280;16776;50.958;10.994;2023-03-22T07:32:09;98036.84;;;10.47;100.00
29907;BME280;16776;50.958;10.994;2023-03-22T07:34:36;98044.25;;;10.56;100.00
29907;BME280;16776;50.958;10.994;2023-03-22T07:37:06;98039.66;;;10.64;100.00
29907;BME280;16776;50.958;10.994;2023-03-22T07:39:33;98041.91;;;10.73;100.00
29907;BME280;16776;50.958;10.994;2023-03-22T07:42:01;98039.84;;;10.83;100.00
29907;BME280;16776;50.958;10.994;2023-03-22T07:44:28;98044.66;;;10.92;100.00
29907;BME280;16776;50.958;10.994;2023-03-22T07:46:55;98039.03;;;11.04;100.00
29907;BME280;16776;50.958;10.994;2023-03-22T07:49:21;98027.38;;;11.17;100.00
29907;BME280;16776;50.958;10.994;2023-03-22T07:51:48;98027.69;;;11.31;100.00
29907;BME280;16776;50.958;10.994;2023-03-22T07:54:15;98028.72;;;11.48;100.00
29907;BME280;16776;50.958;10.994;2023-03-22T07:56:41;98024.69;;;11.64;100.00
29907;BME280;16776;50.958;10.994;2023-03-22T07:59:10;98020.44;;;11.83;100.00
29907;BME280;16776;50.958;10.994;2023-03-22T08:01:37;98017.22;;;11.98;100.00
29907;BME280;16776;50.958;10.994;2023-03-22T08:04:03;98019.38;;;12.09;100.00
29907;BME280;16776;50.958;10.994;2023-03-22T08:06:30;98019.69;;;12.21;100.00
29907;BME280;16776;50.958;10.994;2023-03-22T08:08:58;98009.56;;;12.36;100.00
29907;BME280;16776;50.958;10.994;2023-03-22T08:11:24;98015.13;;;12.47;100.00
29907;BME280;16776;50.958;10.994;2023-03-22T08:13:51;98013.78;;;12.57;100.00
29907;BME280;16776;50.958;10.994;2023-03-22T08:16:20;98015.84;;;12.69;100.00
29907;BME280;16776;50.958;10.994;2023-03-22T08:18:46;98017.25;;;12.76;100.00
29907;BME280;16776;50.958;10.994;2023-03-22T08:21:13;98010.75;;;12.86;100.00
29907;BME280;16776;50.958;10.994;2023-03-22T08:23:39;98012.16;;;12.93;99.96
29907;BME280;16776;50.958;10.994;2023-03-22T08:26:07;98017.69;;;13.05;100.00
29907;BME280;16776;50.958;10.994;2023-03-22T08:28:34;98012.44;;;13.06;99.63
29907;BME280;16776;50.958;10.994;2023-03-22T08:31:00;98002.03;;;13.08;99.00
29907;BME280;16776;50.958;10.994;2023-03-22T08:33:32;98011.22;;;13.13;99.50
29907;BME280;16776;50.958;10.994;2023-03-22T08:36:06;98000.47;;;13.22;99.85
29907;BME280;16776;50.958;10.994;2023-03-22T08:38:34;97999.63;;;13.22;99.61
29907;BME280;16776;50.958;10.994;2023-03-22T08:41:03;97997.66;;;13.27;99.29
29907;BME280;16776;50.958;10.994;2023-03-22T08:43:29;97993.88;;;13.34;99.67
29907;BME280;16776;50.958;10.994;2023-03-22T08:45:59;98002.78;;;13.46;99.33
29907;BME280;16776;50.958;10.994;2023-03-22T08:48:25;97995.47;;;13.55;99.40
29907;BME280;16776;50.958;10.994;2023-03-22T08:50:56;97980.06;;;13.69;98.73
29907;BME280;16776;50.958;10.994;2023-03-22T08:53:22;97983.97;;;13.78;98.96
29907;BME280;16776;50.958;10.994;2023-03-22T08:55:52;97949.66;;;13.74;98.81
29907;BME280;16776;50.958;10.994;2023-03-22T08:58:22;97967.13;;;14.04;97.21
29907;BME280;16776;50.958;10.994;2023-03-22T09:00:49;97963.63;;;14.05;96.69
29907;BME280;16776;50.958;10.994;2023-03-22T09:03:16;97959.56;;;14.16;95.81
29907;BME280;16776;50.958;10.994;2023-03-22T09:05:42;97957.81;;;14.17;95.83
29907;BME280;16776;50.958;10.994;2023-03-22T09:08:13;97965.94;;;14.27;96.13
29907;BME280;16776;50.958;10.994;2023-03-22T09:10:39;97958.06;;;14.28;95.03
29907;BME280;16776;50.958;10.994;2023-03-22T09:13:06;97957.03;;;14.32;94.78
29907;BME280;16776;50.958;10.994;2023-03-22T09:15:32;97945.50;;;14.38;94.16
29907;BME280;16776;50.958;10.994;2023-03-22T09:18:01;97953.09;;;14.41;93.98
29907;BME280;16776;50.958;10.994;2023-03-22T09:20:29;97952.94;;;14.44;93.98
29907;BME280;16776;50.958;10.994;2023-03-22T09:22:55;97944.88;;;14.50;94.39
29907;BME280;16776;50.958;10.994;2023-03-22T09:25:23;97958.16;;;14.59;95.05
29907;BME280;16776;50.958;10.994;2023-03-22T09:27:53;97946.47;;;14.68;93.97
29907;BME280;16776;50.958;10.994;2023-03-22T09:30:19;97955.31;;;14.80;93.64
29907;BME280;16776;50.958;10.994;2023-03-22T09:32:46;97942.88;;;14.86;92.54
29907;BME280;16776;50.958;10.994;2023-03-22T09:35:18;97937.91;;;14.97;91.91
29907;BME280;16776;50.958;10.994;2023-03-22T09:37:47;97940.00;;;14.91;91.52
29907;BME280;16776;50.958;10.994;2023-03-22T09:40:17;97930.75;;;14.87;91.53
29907;BME280;16776;50.958;10.994;2023-03-22T09:42:46;97926.25;;;14.90;91.92
29907;BME280;16776;50.958;10.994;2023-03-22T09:45:15;97930.41;;;14.93;91.86
29907;BME280;16776;50.958;10.994;2023-03-22T09:47:46;97930.97;;;14.98;92.21
29907;BME280;16776;50.958;10.994;2023-03-22T09:50:18;97916.03;;;15.03;91.73
29907;BME280;16776;50.958;10.994;2023-03-22T09:52:45;97910.72;;;15.05;91.13
29907;BME280;16776;50.958;10.994;2023-03-22T09:55:18;97916.81;;;15.19;91.81
29907;BME280;16776;50.958;10.994;2023-03-22T09:57:50;97906.28;;;15.22;91.09
29907;BME280;16776;50.958;10.994;2023-03-22T10:00:25;97901.59;;;15.29;91.01
29907;BME280;16776;50.958;10.994;2023-03-22T10:02:56;97898.75;;;15.33;92.00
29907;BME280;16776;50.958;10.994;2023-03-22T10:05:28;97903.09;;;15.33;90.74
29907;BME280;16776;50.958;10.994;2023-03-22T10:08:23;97905.63;;;15.49;90.37
29907;BME280;16776;50.958;10.994;2023-03-22T10:10:53;97915.72;;;15.39;88.74
29907;BME280;16776;50.958;10.994;2023-03-22T10:13:23;97909.59;;;15.40;88.95
29907;BME280;16776;50.958;10.994;2023-03-22T10:15:56;97911.13;;;15.28;88.30
29907;BME280;16776;50.958;10.994;2023-03-22T10:18:25;97913.31;;;15.20;89.16
29907;BME280;16776;50.958;10.994;2023-03-22T10:20:57;97902.44;;;15.14;88.42
29907;BME280;16776;50.958;10.994;2023-03-22T10:23:30;97908.25;;;15.03;88.49
29907;BME280;16776;50.958;10.994;2023-03-22T10:26:02;97909.50;;;14.96;88.28
29907;BME280;16776;50.958;10.994;2023-03-22T10:28:36;97905.41;;;14.92;88.76
29907;BME280;16776;50.958;10.994;2023-03-22T10:31:05;97901.16;;;14.75;88.82
29907;BME280;16776;50.958;10.994;2023-03-22T10:33:38;97902.16;;;14.73;88.74
29907;BME280;16776;50.958;10.994;2023-03-22T10:36:15;97896.16;;;14.56;88.77
29907;BME280;16776;50.958;10.994;2023-03-22T10:38:45;97900.66;;;14.53;89.20
29907;BME280;16776;50.958;10.994;2023-03-22T10:41:15;97902.72;;;14.46;89.22
29907;BME280;16776;50.958;10.994;2023-03-22T10:43:44;97902.94;;;14.42;89.85
29907;BME280;16776;50.958;10.994;2023-03-22T10:46:15;97899.38;;;14.44;90.27
29907;BME280;16776;50.958;10.994;2023-03-22T10:48:44;97894.88;;;14.48;89.86
29907;BME280;16776;50.958;10.994;2023-03-22T10:51:24;97902.09;;;14.58;89.86
29907;BME280;16776;50.958;10.994;2023-03-22T10:53:54;97895.06;;;14.60;89.65
29907;BME280;16776;50.958;10.994;2023-03-22T10:56:23;97893.22;;;14.63;89.76
29907;BME280;16776;50.958;10.994;2023-03-22T10:58:54;97901.41;;;14.71;89.53
29907;BME280;16776;50.958;10.994;2023-03-22T11:01:26;97895.28;;;14.72;89.76
29907;BME280;16776;50.958;10.994;2023-03-22T11:03:57;97916.03;;;14.72;90.33
29907;BME280;16776;50.958;10.994;2023-03-22T11:06:25;97896.13;;;14.72;89.09
29907;BME280;16776;50.958;10.994;2023-03-22T11:08:57;97891.44;;;14.79;89.64
29907;BME280;16776;50.958;10.994;2023-03-22T11:11:26;97883.34;;;14.69;89.36
29907;BME280;16776;50.958;10.994;2023-03-22T11:13:59;97878.94;;;14.71;89.44
29907;BME280;16776;50.958;10.994;2023-03-22T11:16:27;97883.44;;;14.68;89.53
29907;BME280;16776;50.958;10.994;2023-03-22T11:19:00;97887.50;;;14.72;89.63
29907;BME280;16776;50.958;10.994;2023-03-22T11:21:30;97884.19;;;14.70;89.57
29907;BME280;16776;50.958;10.994;2023-03-22T11:24:00;97875.66;;;14.68;89.19
29907;BME280;16776;50.958;10.994;2023-03-22T11:26:32;97873.91;;;14.68;89.17
29907;BME280;16776;50.958;10.994;2023-03-22T11:29:13;97880.84;;;14.68;89.13
29907;BME280;16776;50.958;10.994;2023-03-22T11:31:53;97883.44;;;14.68;88.70
29907;BME280;16776;50.958;10.994;2023-03-22T11:34:22;97890.06;;;14.57;88.77
29907;BME280;16776;50.958;10.994;2023-03-22T11:36:49;97882.44;;;14.54;88.44
29907;BME280;16776;50.958;10.994;2023-03-22T11:39:21;97880.09;;;14.50;88.50
29907;BME280;16776;50.958;10.994;2023-03-22T11:41:51;97877.88;;;14.42;88.67
29907;BME280;16776;50.958;10.994;2023-03-22T11:44:21;97879.63;;;14.42;88.76
29907;BME280;16776;50.958;10.994;2023-03-22T11:46:58;97874.22;;;14.31;88.87
29907;BME280;16776;50.958;10.994;2023-03-22T11:49:37;97879.66;;;14.26;88.78
29907;BME280;16776;50.958;10.994;2023-03-22T11:52:10;97867.59;;;14.25;88.39
29907;BME280;16776;50.958;10.994;2023-03-22T11:54:37;97855.66;;;14.22;89.21
29907;BME280;16776;50.958;10.994;2023-03-22T11:57:10;97857.97;;;14.11;89.15
29907;BME280;16776;50.958;10.994;2023-03-22T11:59:45;97852.56;;;14.16;89.51
29907;BME280;16776;50.958;10.994;2023-03-22T12:02:17;97849.13;;;14.15;89.80
29907;BME280;16776;50.958;10.994;2023-03-22T12:04:46;97848.38;;;14.13;89.78
29907;BME280;16776;50.958;10.994;2023-03-22T12:07:15;97848.22;;;14.16;90.06
29907;BME280;16776;50.958;10.994;2023-03-22T12:09:47;97855.91;;;14.18;89.91
29907;BME280;16776;50.958;10.994;2023-03-22T12:12:22;97843.94;;;14.15;90.12
29907;BME280;16776;50.958;10.994;2023-03-22T12:14:56;97855.91;;;14.18;90.64
29907;BME280;16776;50.958;10.994;2023-03-22T12:17:31;97838.63;;;14.18;90.13
29907;BME280;16776;50.958;10.994;2023-03-22T12:20:05;97849.28;;;14.28;90.37
29907;BME280;16776;50.958;10.994;2023-03-22T12:22:41;97842.88;;;14.35;90.22
29907;BME280;16776;50.958;10.994;2023-03-22T12:25:12;97834.75;;;14.41;90.07
29907;BME280;16776;50.958;10.994;2023-03-22T12:27:42;97837.63;;;14.52;90.53
29907;BME280;16776;50.958;10.994;2023-03-22T12:30:17;97830.13;;;14.64;89.39
29907;BME280;16776;50.958;10.994;2023-03-22T12:32:47;97830.59;;;14.70;89.35
29907;BME280;16776;50.958;10.994;2023-03-22T12:35:19;97824.16;;;14.77;89.51
29907;BME280;16776;50.958;10.994;2023-03-22T12:37:49;97811.69;;;14.84;89.13
29907;BME280;16776;50.958;10.994;2023-03-22T12:40:21;97815.34;;;14.95;89.31
29907;BME280;16776;50.958;10.994;2023-03-22T12:43:01;97815.38;;;15.10;89.32
29907;BME280;16776;50.958;10.994;2023-03-22T12:45:37;97806.03;;;15.21;88.95
29907;BME280;16776;50.958;10.994;2023-03-22T12:48:09;97802.34;;;15.25;88.88
29907;BME280;16776;50.958;10.994;2023-03-22T12:50:41;97807.94;;;15.33;88.79
29907;BME280;16776;50.958;10.994;2023-03-22T12:53:11;97803.31;;;15.38;88.46
29907;BME280;16776;50.958;10.994;2023-03-22T12:55:42;97808.22;;;15.43;87.84
29907;BME280;16776;50.958;10.994;2023-03-22T12:58:13;97799.59;;;15.42;87.53
29907;BME280;16776;50.958;10.994;2023-03-22T13:00:45;97800.63;;;15.40;87.38
29907;BME280;16776;50.958;10.994;2023-03-22T13:03:25;97802.31;;;15.41;87.42
29907;BME280;16776;50.958;10.994;2023-03-22T13:06:00;97800.81;;;15.37;87.20